createdAt,value
2019-04-25T00:00:48.721Z,29.20
2019-04-25T00:03:25.311Z,29.30
2019-04-25T00:05:54.077Z,29.30
2019-04-25T00:08:23.211Z,29.40
2019-04-25T00:10:51.950Z,29.50
2019-04-25T00:13:21.794Z,29.50
2019-04-25T00:15:51.893Z,29.50
2019-04-25T00:18:21.981Z,29.60
2019-04-25T00:20:58.441Z,29.60
2019-04-25T00:23:27.168Z,29.70
2019-04-25T00:26:01.246Z,29.80
2019-04-25T00:28:31.633Z,29.80
2019-04-25T00:31:02.017Z,29.80
2019-04-25T00:33:31.550Z,29.90
2019-04-25T00:36:02.037Z,30.00
2019-04-25T00:38:31.857Z,30.10
2019-04-25T00:41:01.708Z,30.20
2019-04-25T00:43:31.461Z,30.30
2019-04-25T00:46:01.481Z,30.40
2019-04-25T00:48:31.712Z,30.40
2019-04-25T00:51:01.923Z,30.50
2019-04-25T00:53:32.370Z,30.60
2019-04-25T00:56:01.498Z,30.60
2019-04-25T00:58:48.896Z,30.50
2019-04-25T01:01:35.722Z,30.50
2019-04-25T01:04:04.551Z,30.70
2019-04-25T01:06:33.318Z,30.90
2019-04-25T01:09:03.455Z,30.80
2019-04-25T01:11:32.158Z,31.00
2019-04-25T01:14:02.157Z,31.00
2019-04-25T01:16:31.859Z,31.10
2019-04-25T01:19:00.958Z,31.10
2019-04-25T01:21:29.725Z,31.10
2019-04-25T01:23:58.342Z,31.10
2019-04-25T01:26:27.146Z,31.20
2019-04-25T01:28:56.029Z,31.20
2019-04-25T01:31:26.471Z,31.20
2019-04-25T01:33:55.605Z,31.10
2019-04-25T01:36:38.808Z,31.30
2019-04-25T01:39:24.139Z,31.30
2019-04-25T01:42:10.623Z,31.30
2019-04-25T01:44:54.209Z,31.30
2019-04-25T01:47:23.977Z,31.40
2019-04-25T01:49:54.376Z,31.50
2019-04-25T01:52:23.563Z,31.50
2019-04-25T01:54:54.635Z,31.60
2019-04-25T01:57:23.970Z,31.60
2019-04-25T01:59:54.134Z,31.70
2019-04-25T02:02:24.846Z,31.80
2019-04-25T02:04:56.800Z,32.30
2019-04-25T02:07:23.745Z,32.00
2019-04-25T02:09:54.777Z,32.00
2019-04-25T02:12:33.701Z,32.00
2019-04-25T02:15:05.938Z,32.20
2019-04-25T02:17:34.057Z,32.10
2019-04-25T02:20:05.168Z,32.00
2019-04-25T02:22:33.939Z,32.20
2019-04-25T02:25:05.373Z,32.30
2019-04-25T02:27:34.287Z,32.20
2019-04-25T02:30:06.791Z,32.30
2019-04-25T02:32:36.829Z,32.20
2019-04-25T02:35:09.588Z,32.40
2019-04-25T02:37:36.978Z,32.30
2019-04-25T02:40:09.115Z,32.40
2019-04-25T02:42:37.923Z,32.40
2019-04-25T02:45:28.525Z,32.40
2019-04-25T02:48:14.981Z,32.50
2019-04-25T02:50:56.478Z,32.50
2019-04-25T02:53:41.374Z,32.50
2019-04-25T02:56:27.536Z,32.50
2019-04-25T02:58:40.338Z,32.70
2019-04-25T03:01:19.407Z,32.70
2019-04-25T03:03:41.256Z,32.70
2019-04-25T03:06:10.081Z,32.80
2019-04-25T03:08:39.172Z,32.90
2019-04-25T03:11:09.218Z,32.90
2019-04-25T03:13:38.369Z,32.80
2019-04-25T03:16:09.693Z,32.90
2019-04-25T03:18:47.842Z,32.90
2019-04-25T03:21:18.221Z,32.90
2019-04-25T03:23:48.904Z,32.90
2019-04-25T03:26:17.611Z,32.80
2019-04-25T03:28:46.251Z,32.90
2019-04-25T03:31:22.031Z,32.90
2019-04-25T03:33:46.203Z,32.90
2019-04-25T03:36:16.928Z,32.90
2019-04-25T03:38:45.485Z,33.00
2019-04-25T03:41:14.765Z,33.10
2019-04-25T03:43:45.105Z,33.10
2019-04-25T03:46:14.259Z,33.00
2019-04-25T03:48:44.118Z,32.90
2019-04-25T03:51:15.332Z,32.90
2019-04-25T03:53:43.753Z,32.90
2019-04-25T03:56:14.488Z,33.10
2019-04-25T03:58:43.924Z,33.10
2019-04-25T04:01:15.410Z,33.10
2019-04-25T04:03:44.067Z,33.30
2019-04-25T04:06:14.605Z,33.40
2019-04-25T04:08:44.290Z,33.30
2019-04-25T04:11:14.963Z,33.40
2019-04-25T04:13:44.128Z,33.20
2019-04-25T04:16:15.596Z,33.50
2019-04-25T04:18:46.385Z,33.40
2019-04-25T04:21:17.389Z,33.30
2019-04-25T04:23:59.889Z,33.30
2019-04-25T04:26:28.689Z,33.20
2019-04-25T04:28:57.293Z,33.20
2019-04-25T04:31:27.754Z,33.30
2019-04-25T04:33:56.326Z,33.30
2019-04-25T04:36:24.934Z,33.20
2019-04-25T04:38:54.334Z,33.20
2019-04-25T04:41:23.951Z,33.30
2019-04-25T04:43:54.129Z,33.10
2019-04-25T04:46:24.007Z,33.20
2019-04-25T04:48:54.097Z,33.10
2019-04-25T04:51:23.664Z,32.90
2019-04-25T04:53:53.722Z,32.90
2019-04-25T04:56:23.927Z,32.90
2019-04-25T04:58:53.974Z,32.70
2019-04-25T05:01:24.795Z,32.50
2019-04-25T05:03:55.484Z,32.60
2019-04-25T05:06:31.867Z,32.60
2019-04-25T05:09:03.356Z,32.30
2019-04-25T05:11:33.490Z,32.30
2019-04-25T05:14:03.940Z,32.30
2019-04-25T05:16:33.190Z,32.30
2019-04-25T05:19:03.703Z,32.20
2019-04-25T05:21:33.658Z,32.20
2019-04-25T05:24:04.111Z,32.10
2019-04-25T05:26:34.143Z,32.10
2019-04-25T05:29:03.639Z,31.80
2019-04-25T05:31:34.289Z,31.90
2019-04-25T05:34:03.668Z,31.80
2019-04-25T05:36:38.487Z,31.80
2019-04-25T05:39:09.405Z,31.80
2019-04-25T05:41:49.530Z,31.90
2019-04-25T05:44:18.729Z,31.90
2019-04-25T05:46:47.438Z,31.80
2019-04-25T05:49:17.116Z,31.90
2019-04-25T05:51:46.148Z,32.10
2019-04-25T05:54:14.756Z,32.00
2019-04-25T05:56:43.787Z,31.90
2019-04-25T05:59:13.465Z,32.10
2019-04-25T06:01:43.469Z,32.00
2019-04-25T06:04:13.582Z,32.00
2019-04-25T06:06:42.553Z,32.00
2019-04-25T06:09:21.937Z,31.80
2019-04-25T06:11:53.330Z,31.70
2019-04-25T06:14:24.022Z,31.60
2019-04-25T06:16:54.866Z,31.30
2019-04-25T06:19:39.925Z,31.30
2019-04-25T06:22:10.338Z,31.40
2019-04-25T06:24:44.393Z,31.20
2019-04-25T06:27:15.068Z,31.10
2019-04-25T06:29:57.408Z,30.90
2019-04-25T06:32:15.975Z,31.90
2019-04-25T06:34:44.608Z,31.40
2019-04-25T06:37:13.871Z,31.80
2019-04-25T06:39:44.252Z,32.00
2019-04-25T06:42:13.849Z,32.30
2019-04-25T06:44:44.529Z,32.60
2019-04-25T06:47:17.571Z,32.70
2019-04-25T06:49:46.355Z,33.10
2019-04-25T06:52:14.963Z,32.90
2019-04-25T06:54:43.736Z,32.80
2019-04-25T06:57:14.030Z,32.70
2019-04-25T06:59:43.738Z,32.50
2019-04-25T07:02:13.977Z,32.30
2019-04-25T07:04:43.488Z,31.90
2019-04-25T07:07:14.912Z,31.70
2019-04-25T07:09:43.861Z,31.80
2019-04-25T07:12:13.449Z,31.80
2019-04-25T07:14:43.942Z,31.60
2019-04-25T07:17:14.287Z,31.70
2019-04-25T07:19:44.046Z,31.00
2019-04-25T07:22:15.210Z,30.40
2019-04-25T07:24:43.971Z,30.20
2019-04-25T07:27:24.623Z,30.00
2019-04-25T07:29:58.041Z,29.90
2019-04-25T07:32:30.861Z,29.40
2019-04-25T07:34:58.947Z,28.60
2019-04-25T07:37:27.675Z,28.20
2019-04-25T07:39:56.527Z,28.30
2019-04-25T07:42:25.969Z,27.60
2019-04-25T07:44:55.902Z,27.30
2019-04-25T07:47:24.698Z,27.20
2019-04-25T07:49:54.210Z,27.10
2019-04-25T07:52:23.494Z,27.00
2019-04-25T07:54:53.531Z,26.80
2019-04-25T07:57:23.761Z,26.80
2019-04-25T07:59:53.726Z,26.80
2019-04-25T08:02:23.342Z,26.50
2019-04-25T08:04:52.223Z,25.80
2019-04-25T08:07:21.380Z,25.80
2019-04-25T08:09:50.108Z,25.80
2019-04-25T08:12:18.795Z,25.50
2019-04-25T08:14:49.144Z,25.50
2019-04-25T08:17:32.538Z,25.40
2019-04-25T08:20:03.987Z,25.50
2019-04-25T08:22:34.480Z,25.60
2019-04-25T08:25:07.361Z,25.40
2019-04-25T08:27:36.748Z,24.60
2019-04-25T08:30:06.596Z,24.10
2019-04-25T08:32:36.390Z,24.10
2019-04-25T08:35:06.677Z,24.30
2019-04-25T08:37:36.536Z,24.10
2019-04-25T08:40:07.583Z,23.80
2019-04-25T08:42:36.806Z,24.00
2019-04-25T08:45:07.457Z,24.10
2019-04-25T08:47:37.311Z,24.50
2019-04-25T08:50:26.944Z,24.30
2019-04-25T08:52:46.454Z,23.90
2019-04-25T08:55:34.941Z,24.10
2019-04-25T08:58:08.487Z,24.10
2019-04-25T09:00:44.940Z,23.30
2019-04-25T09:03:18.155Z,22.90
2019-04-25T09:05:48.786Z,22.80
2019-04-25T09:08:17.542Z,22.10
2019-04-25T09:10:46.302Z,21.70
2019-04-25T09:13:15.052Z,20.70
2019-04-25T09:15:45.498Z,19.70
2019-04-25T09:18:14.183Z,18.70
2019-04-25T09:20:45.919Z,18.20
2019-04-25T09:23:13.933Z,17.70
2019-04-25T09:25:44.482Z,17.10
2019-04-25T09:28:14.227Z,16.80
2019-04-25T09:30:44.852Z,16.40
2019-04-25T09:33:13.481Z,16.30
2019-04-25T09:35:42.172Z,15.90
2019-04-25T09:38:13.304Z,15.60
2019-04-25T09:40:44.458Z,15.20
2019-04-25T09:43:14.233Z,14.90
2019-04-25T09:45:47.673Z,14.30
2019-04-25T09:48:24.049Z,14.00
2019-04-25T09:50:57.410Z,14.20
2019-04-25T09:53:26.157Z,13.90
2019-04-25T09:55:58.854Z,13.90
2019-04-25T09:58:36.439Z,14.00
2019-04-25T10:01:13.875Z,14.20
2019-04-25T10:03:44.751Z,14.00
2019-04-25T10:06:17.676Z,14.10
2019-04-25T10:08:47.425Z,14.20
2019-04-25T10:11:16.859Z,13.90
2019-04-25T10:13:48.535Z,13.60
2019-04-25T10:16:17.297Z,13.90
2019-04-25T10:18:45.973Z,13.80
2019-04-25T10:21:15.093Z,13.70
2019-04-25T10:23:45.319Z,13.30
2019-04-25T10:26:14.549Z,13.50
2019-04-25T10:28:44.129Z,13.00
2019-04-25T10:31:13.863Z,12.70
2019-04-25T10:33:43.753Z,12.80
2019-04-25T10:36:14.464Z,12.80
2019-04-25T10:38:46.988Z,13.00
2019-04-25T10:41:14.278Z,12.70
2019-04-25T10:43:43.953Z,12.40
2019-04-25T10:46:14.230Z,12.30
2019-04-25T10:48:43.975Z,12.60
2019-04-25T10:51:13.940Z,12.40
2019-04-25T10:53:45.386Z,12.30
2019-04-25T10:56:14.191Z,12.30
2019-04-25T10:58:44.397Z,12.30
2019-04-25T11:01:15.144Z,12.00
2019-04-25T11:03:51.722Z,11.50
2019-04-25T11:06:23.880Z,11.50
2019-04-25T11:08:55.436Z,11.40
2019-04-25T11:11:24.103Z,11.40
2019-04-25T11:13:55.693Z,11.10
2019-04-25T11:16:24.443Z,11.20
2019-04-25T11:18:54.748Z,11.20
2019-04-25T11:21:24.268Z,11.30
2019-04-25T11:23:55.107Z,11.40
2019-04-25T11:26:23.683Z,11.30
2019-04-25T11:28:52.328Z,11.50
2019-04-25T11:31:23.492Z,11.70
2019-04-25T11:33:54.366Z,11.90
2019-04-25T11:36:24.812Z,11.50
2019-04-25T11:39:01.195Z,11.40
2019-04-25T11:41:30.394Z,11.20
2019-04-25T11:44:00.443Z,10.70
2019-04-25T11:46:29.262Z,10.80
2019-04-25T11:48:58.011Z,10.60
2019-04-25T11:51:26.674Z,11.20
2019-04-25T11:53:55.607Z,12.20
2019-04-25T11:56:24.463Z,12.20
2019-04-25T11:58:54.150Z,12.10
2019-04-25T12:01:24.346Z,11.80
2019-04-25T12:03:54.841Z,11.50
2019-04-25T12:06:24.356Z,10.80
2019-04-25T12:08:54.253Z,10.70
2019-04-25T12:11:23.776Z,10.70
2019-04-25T12:13:54.193Z,10.80
2019-04-25T12:16:24.632Z,11.10
2019-04-25T12:18:55.332Z,11.00
2019-04-25T12:21:24.012Z,11.00
2019-04-25T12:23:52.778Z,10.80
2019-04-25T12:26:24.289Z,10.70
2019-04-25T12:28:53.918Z,10.70
2019-04-25T12:31:23.818Z,11.20
2019-04-25T12:33:54.786Z,11.40
2019-04-25T12:36:24.012Z,11.70
2019-04-25T12:38:54.286Z,11.50
2019-04-25T12:41:23.219Z,11.60
2019-04-25T12:43:56.539Z,11.80
2019-04-25T12:46:26.862Z,11.60
2019-04-25T12:48:55.447Z,11.30
2019-04-25T12:51:24.063Z,11.50
2019-04-25T12:53:55.231Z,11.50
2019-04-25T12:56:24.715Z,11.50
2019-04-25T12:58:53.879Z,11.80
2019-04-25T13:01:24.899Z,11.20
2019-04-25T13:03:54.391Z,10.90
2019-04-25T13:06:24.188Z,10.80
2019-04-25T13:08:54.259Z,10.80
2019-04-25T13:11:24.043Z,10.50
2019-04-25T13:13:52.834Z,10.30
2019-04-25T13:16:21.587Z,10.60
2019-04-25T13:18:50.790Z,11.20
2019-04-25T13:21:19.458Z,11.90
2019-04-25T13:23:48.926Z,12.20
2019-04-25T13:26:19.271Z,12.00
2019-04-25T13:28:49.483Z,11.40
2019-04-25T13:31:28.600Z,11.40
2019-04-25T13:33:58.919Z,11.40
2019-04-25T13:36:27.575Z,11.10
2019-04-25T13:38:56.357Z,11.20
2019-04-25T13:41:25.839Z,11.00
2019-04-25T13:43:54.800Z,11.00
2019-04-25T13:46:26.086Z,10.60
2019-04-25T13:48:54.371Z,10.80
2019-04-25T13:51:24.638Z,11.20
2019-04-25T13:53:54.518Z,11.30
2019-04-25T13:56:25.887Z,11.30
2019-04-25T13:58:54.305Z,11.20
2019-04-25T14:01:24.659Z,11.40
2019-04-25T14:03:54.286Z,11.50
2019-04-25T14:06:23.991Z,11.40
2019-04-25T14:08:53.442Z,11.30
2019-04-25T14:11:24.131Z,11.20
2019-04-25T14:13:53.424Z,11.40
2019-04-25T14:16:25.345Z,11.40
2019-04-25T14:18:55.567Z,11.40
2019-04-25T14:21:26.131Z,11.40
2019-04-25T14:23:55.025Z,12.30
2019-04-25T14:26:27.017Z,12.90
2019-04-25T14:28:55.728Z,13.50
2019-04-25T14:31:41.230Z,13.80
2019-04-25T14:33:55.832Z,13.80
2019-04-25T14:36:26.000Z,13.90
2019-04-25T14:38:55.034Z,14.10
2019-04-25T14:41:23.879Z,14.50
2019-04-25T14:43:52.594Z,15.20
2019-04-25T14:46:21.264Z,16.00
2019-04-25T14:48:50.303Z,16.80
2019-04-25T14:51:19.090Z,17.00
2019-04-25T14:53:47.835Z,17.20
2019-04-25T14:56:36.375Z,17.10
2019-04-25T14:59:05.980Z,17.60
2019-04-25T15:01:44.617Z,18.40
2019-04-25T15:04:05.082Z,18.00
2019-04-25T15:06:33.754Z,18.10
2019-04-25T15:09:02.475Z,18.00
2019-04-25T15:11:31.507Z,18.30
2019-04-25T15:14:00.295Z,18.60
2019-04-25T15:16:29.083Z,18.80
2019-04-25T15:18:57.719Z,19.20
2019-04-25T15:21:27.522Z,19.30
2019-04-25T15:24:00.398Z,19.40
2019-04-25T15:26:26.833Z,19.40
2019-04-25T15:28:55.835Z,19.50
2019-04-25T15:31:25.492Z,19.80
2019-04-25T15:33:54.345Z,20.20
2019-04-25T15:36:30.613Z,20.60
2019-04-25T15:39:17.159Z,20.90
2019-04-25T15:41:53.413Z,21.20
2019-04-25T15:44:35.306Z,21.30
2019-04-25T15:47:04.517Z,21.20
2019-04-25T15:49:33.215Z,21.20
2019-04-25T15:52:02.073Z,21.30
2019-04-25T15:54:31.686Z,21.40
2019-04-25T15:57:00.522Z,21.30
2019-04-25T15:59:30.704Z,21.70
2019-04-25T16:02:07.861Z,21.80
2019-04-25T16:04:30.395Z,22.00
2019-04-25T16:06:59.239Z,22.30
2019-04-25T16:09:28.479Z,22.30
2019-04-25T16:11:57.069Z,22.20
2019-04-25T16:14:26.466Z,22.30
2019-04-25T16:16:55.124Z,22.40
2019-04-25T16:19:23.814Z,22.60
2019-04-25T16:21:52.532Z,22.60
2019-04-25T16:24:21.199Z,22.70
2019-04-25T16:26:50.047Z,22.90
2019-04-25T16:29:18.695Z,23.20
2019-04-25T16:31:47.367Z,23.10
2019-04-25T16:34:16.136Z,23.90
2019-04-25T16:36:44.708Z,23.60
2019-04-25T16:39:15.031Z,23.80
2019-04-25T16:41:43.919Z,24.00
2019-04-25T16:44:14.311Z,24.10
2019-04-25T16:46:42.938Z,24.30
2019-04-25T16:49:11.642Z,24.40
2019-04-25T16:51:40.232Z,24.50
2019-04-25T16:54:08.918Z,24.70
2019-04-25T16:56:37.559Z,24.90
2019-04-25T16:59:06.254Z,25.00
2019-04-25T17:01:35.994Z,25.20
2019-04-25T17:04:05.182Z,25.40
2019-04-25T17:06:34.007Z,25.60
2019-04-25T17:09:03.299Z,25.90
2019-04-25T17:11:32.065Z,26.00
2019-04-25T17:14:08.332Z,26.20
2019-04-25T17:16:42.331Z,26.30
2019-04-25T17:19:13.065Z,26.30
2019-04-25T17:21:41.793Z,26.50
2019-04-25T17:24:10.566Z,26.70
2019-04-25T17:26:39.521Z,26.80
2019-04-25T17:29:10.927Z,27.00
2019-04-25T17:31:48.686Z,27.10
2019-04-25T17:34:19.132Z,27.30
2019-04-25T17:37:08.867Z,27.60
2019-04-25T17:39:39.756Z,28.00
2019-04-25T17:42:08.642Z,28.10
2019-04-25T17:44:38.381Z,28.20
2019-04-25T17:47:07.493Z,28.30
2019-04-25T17:49:36.809Z,28.50
2019-04-25T17:52:09.241Z,28.70
2019-04-25T17:54:38.868Z,28.80
2019-04-25T17:57:07.650Z,29.00
2019-04-25T17:59:36.926Z,29.10
2019-04-25T18:02:06.229Z,29.30
2019-04-25T18:04:35.372Z,29.50
2019-04-25T18:07:05.108Z,29.60
2019-04-25T18:09:34.443Z,29.80
2019-04-25T18:12:07.497Z,29.90
2019-04-25T18:14:36.445Z,30.00
2019-04-25T18:17:05.291Z,30.30
2019-04-25T18:19:44.789Z,30.50
2019-04-25T18:22:17.997Z,30.60
2019-04-25T18:25:03.636Z,30.60
2019-04-25T18:27:37.663Z,30.70
2019-04-25T18:30:07.998Z,30.80
2019-04-25T18:32:41.159Z,31.20
2019-04-25T18:35:11.840Z,31.00
2019-04-25T18:37:57.259Z,31.00
2019-04-25T18:40:27.677Z,31.10
2019-04-25T18:43:00.823Z,31.20
2019-04-25T18:45:31.134Z,31.50
2019-04-25T18:47:59.930Z,31.60
2019-04-25T18:50:30.147Z,31.90
2019-04-25T18:53:16.795Z,32.00
2019-04-25T18:55:47.842Z,32.00
2019-04-25T18:58:30.017Z,32.20
2019-04-25T19:01:12.192Z,32.40
2019-04-25T19:03:48.381Z,32.40
2019-04-25T19:06:21.564Z,32.80
2019-04-25T19:08:53.199Z,32.50
2019-04-25T19:11:20.633Z,33.10
2019-04-25T19:13:49.379Z,33.30
2019-04-25T19:16:18.438Z,33.50
2019-04-25T19:18:48.000Z,33.50
2019-04-25T19:21:16.795Z,33.60
2019-04-25T19:23:46.078Z,33.60
2019-04-25T19:26:15.037Z,33.60
2019-04-25T19:28:44.766Z,33.80
2019-04-25T19:31:13.691Z,33.90
2019-04-25T19:33:43.317Z,34.00
2019-04-25T19:36:12.313Z,34.10
2019-04-25T19:38:41.910Z,34.30
2019-04-25T19:41:15.296Z,34.50
2019-04-25T19:43:57.324Z,34.60
2019-04-25T19:46:27.613Z,34.60
2019-04-25T19:48:56.262Z,34.80
2019-04-25T19:51:26.512Z,35.20
2019-04-25T19:53:55.399Z,35.30
2019-04-25T19:56:24.123Z,35.50
2019-04-25T19:58:52.833Z,35.60
2019-04-25T20:01:21.673Z,35.70
2019-04-25T20:03:56.791Z,35.80
2019-04-25T20:06:24.127Z,35.60
2019-04-25T20:08:57.418Z,35.70
2019-04-25T20:11:27.821Z,36.00
2019-04-25T20:13:56.569Z,35.90
2019-04-25T20:16:26.416Z,36.10
2019-04-25T20:18:55.185Z,36.30
2019-04-25T20:21:23.827Z,36.40
2019-04-25T20:23:52.489Z,36.70
2019-04-25T20:26:21.217Z,36.80
2019-04-25T20:28:49.868Z,37.10
2019-04-25T20:31:18.464Z,36.90
2019-04-25T20:33:47.063Z,37.10
2019-04-25T20:36:17.971Z,37.10
2019-04-25T20:38:47.206Z,37.40
2019-04-25T20:41:16.130Z,37.30
2019-04-25T20:43:44.920Z,37.40
2019-04-25T20:46:13.571Z,37.50
2019-04-25T20:48:42.214Z,37.60
2019-04-25T20:51:10.861Z,37.60
2019-04-25T20:53:39.484Z,37.60
2019-04-25T20:56:08.147Z,37.40
2019-04-25T20:58:36.903Z,37.20
2019-04-25T21:01:05.643Z,37.20
2019-04-25T21:03:34.284Z,37.10
2019-04-25T21:06:04.565Z,37.10
2019-04-25T21:08:33.200Z,37.00
2019-04-25T21:11:02.174Z,36.90
2019-04-25T21:13:35.394Z,36.80
2019-04-25T21:16:08.130Z,36.50
2019-04-25T21:18:38.350Z,36.50
2019-04-25T21:21:07.101Z,36.30
2019-04-25T21:23:35.687Z,36.60
2019-04-25T21:26:04.425Z,36.70
2019-04-25T21:28:33.070Z,36.80
2019-04-25T21:31:02.451Z,36.90
2019-04-25T21:33:32.211Z,36.80
2019-04-25T21:36:01.567Z,36.80
2019-04-25T21:38:30.971Z,36.80
2019-04-25T21:41:17.496Z,36.60
2019-04-25T21:43:48.277Z,36.60
2019-04-25T21:46:17.452Z,36.70
2019-04-25T21:48:46.330Z,36.80
2019-04-25T21:51:33.524Z,36.70
2019-04-25T21:54:03.601Z,36.70
2019-04-25T21:56:32.790Z,36.80
2019-04-25T21:59:01.985Z,37.10
2019-04-25T22:01:35.470Z,37.10
2019-04-25T22:04:05.187Z,37.10
2019-04-25T22:06:34.179Z,37.30
2019-04-25T22:09:05.091Z,37.60
2019-04-25T22:11:33.974Z,37.90
2019-04-25T22:14:03.446Z,37.90
2019-04-25T22:16:32.477Z,38.10
2019-04-25T22:19:02.059Z,38.40
2019-04-25T22:21:37.993Z,38.40
2019-04-25T22:24:08.886Z,38.60
2019-04-25T22:26:31.971Z,38.90
2019-04-25T22:29:01.279Z,38.90
2019-04-25T22:31:34.433Z,39.10
2019-04-25T22:34:10.307Z,39.50
2019-04-25T22:36:39.448Z,39.90
2019-04-25T22:39:09.982Z,40.00
2019-04-25T22:41:42.562Z,39.50
2019-04-25T22:44:13.776Z,40.20
2019-04-25T22:46:43.179Z,40.30
2019-04-25T22:49:12.622Z,40.40
2019-04-25T22:51:41.354Z,40.60
2019-04-25T22:54:10.406Z,40.50
2019-04-25T22:56:39.005Z,40.50
2019-04-25T22:59:08.942Z,40.50
2019-04-25T23:01:39.447Z,40.40
2019-04-25T23:04:21.451Z,40.20
2019-04-25T23:06:50.059Z,40.10
2019-04-25T23:09:18.660Z,40.20
2019-04-25T23:11:47.546Z,40.10
2019-04-25T23:14:16.295Z,40.10
2019-04-25T23:16:44.940Z,40.20
2019-04-25T23:19:13.510Z,40.30
2019-04-25T23:21:42.627Z,40.40
2019-04-25T23:24:11.902Z,40.80
2019-04-25T23:26:57.376Z,40.70
2019-04-25T23:29:26.027Z,40.70
2019-04-25T23:31:54.641Z,41.10
2019-04-25T23:34:23.306Z,40.20
2019-04-25T23:36:51.986Z,40.20
2019-04-25T23:39:20.958Z,40.20
2019-04-25T23:41:49.582Z,40.50
2019-04-25T23:44:18.183Z,40.30
2019-04-25T23:46:47.294Z,40.40
2019-04-25T23:49:16.986Z,40.30
2019-04-25T23:51:46.278Z,40.60
2019-04-25T23:54:15.090Z,40.60
2019-04-25T23:56:43.982Z,40.60
2019-04-25T23:59:13.545Z,40.70
